Time;durP1;ratioP1;P1;durP2;ratioP2;P2;SDS_P1;SDS_P2;PMS_P1;PMS_P2;Temp;Humidity;BMP_temperature;BMP_pressure;BME280_temperature;BME280_humidity;BME280_pressure;Samples;Min_cycle;Max_cycle;Signal;HPM_P1;HPM_P2
2022/07/27 00:00:59;;;;;;;4.68;0.80;;;15.20;99.90;;;;;;4997456;28;20034;-81
2022/07/27 00:03:24;;;;;;;4.18;0.85;;;15.20;99.90;;;;;;5013062;28;20041;-80
2022/07/27 00:05:50;;;;;;;3.00;0.88;;;15.20;99.90;;;;;;5012883;28;20045;-80
2022/07/27 00:08:19;;;;;;;4.40;0.80;;;15.10;99.90;;;;;;4997177;28;20048;-80
2022/07/27 00:10:45;;;;;;;3.97;0.80;;;15.10;99.90;;;;;;4997409;28;20512;-81
2022/07/27 00:13:11;;;;;;;2.85;0.77;;;15.10;99.90;;;;;;5013353;28;20045;-80
2022/07/27 00:15:36;;;;;;;4.90;1.00;;;15.10;99.90;;;;;;5013518;28;20045;-80
2022/07/27 00:18:02;;;;;;;6.25;1.00;;;15.00;99.90;;;;;;5012753;28;20100;-81
2022/07/27 00:20:29;;;;;;;4.15;1.00;;;15.00;99.90;;;;;;5013457;28;20081;-80
2022/07/27 00:22:55;;;;;;;5.75;1.05;;;14.90;99.90;;;;;;5013393;28;20069;-80
2022/07/27 00:25:21;;;;;;;3.40;0.80;;;14.90;99.90;;;;;;5013399;28;20381;-79
2022/07/27 00:27:47;;;;;;;3.22;0.80;;;14.90;99.90;;;;;;5020370;28;20037;-79
2022/07/27 00:30:13;;;;;;;2.78;0.98;;;14.80;99.90;;;;;;5013006;28;20042;-79
2022/07/27 00:32:38;;;;;;;3.50;1.00;;;14.90;99.90;;;;;;4996563;28;20073;-80
2022/07/27 00:35:05;;;;;;;5.17;0.80;;;14.80;99.90;;;;;;4996043;28;20120;-80
2022/07/27 00:37:30;;;;;;;3.30;0.80;;;14.90;99.90;;;;;;4996976;28;20292;-80
2022/07/27 00:39:56;;;;;;;3.08;0.98;;;14.90;99.90;;;;;;5013091;28;20045;-79
2022/07/27 00:42:26;;;;;;;5.13;0.73;;;14.80;99.90;;;;;;5012928;28;20044;-80
2022/07/27 00:44:54;;;;;;;4.95;0.82;;;14.90;99.90;;;;;;5012761;28;20042;-79
2022/07/27 00:47:20;;;;;;;2.65;0.82;;;14.90;99.90;;;;;;4996713;28;20042;-79
2022/07/27 00:49:46;;;;;;;6.97;1.20;;;14.90;99.90;;;;;;5012643;28;20100;-80
2022/07/27 00:52:13;;;;;;;2.65;0.88;;;14.80;99.90;;;;;;5012645;28;20486;-80
2022/07/27 00:54:39;;;;;;;5.40;0.93;;;14.70;99.90;;;;;;5012382;28;20092;-80
2022/07/27 00:57:06;;;;;;;5.13;1.10;;;14.70;99.90;;;;;;5012717;28;20056;-80
2022/07/27 00:59:31;;;;;;;;;;;14.60;99.90;;;;;;5013280;28;20494;-79
2022/07/27 01:01:57;;;;;;;5.68;0.90;;;14.50;99.90;;;;;;5012620;28;19921;-79
2022/07/27 01:04:23;;;;;;;5.72;1.08;;;14.40;99.90;;;;;;4979993;28;20580;-79
2022/07/27 01:06:48;;;;;;;2.43;0.90;;;14.30;99.90;;;;;;4980217;28;20069;-80
2022/07/27 01:11:59;;;;;;;4.70;1.02;;;14.30;99.90;;;;;;4996914;28;20042;-79
2022/07/27 01:14:25;;;;;;;3.70;1.08;;;14.20;99.90;;;;;;4996015;28;20042;-79
2022/07/27 01:16:50;;;;;;;3.10;0.88;;;14.20;99.90;;;;;;5011863;28;20041;-80
2022/07/27 01:19:17;;;;;;;4.88;1.10;;;14.20;99.90;;;;;;5011479;28;20517;-79
2022/07/27 01:21:43;;;;;;;;;;;14.20;99.90;;;;;;4993625;28;20042;-80
2022/07/27 01:24:09;;;;;;;5.82;1.30;;;14.30;99.90;;;;;;5012166;28;20008;-80
2022/07/27 01:26:36;;;;;;;;;;;14.30;99.90;;;;;;4996019;28;20064;-80
2022/07/27 01:29:02;;;;;;;6.10;1.10;;;14.30;99.90;;;;;;5012307;28;19921;-80
2022/07/27 01:31:28;;;;;;;3.45;1.23;;;14.30;99.90;;;;;;5012146;28;20305;-80
2022/07/27 01:33:54;;;;;;;3.92;1.02;;;14.30;99.90;;;;;;5012181;28;20088;-80
2022/07/27 01:36:19;;;;;;;3.72;1.20;;;14.30;99.90;;;;;;5012284;28;20053;-80
2022/07/27 01:38:45;;;;;;;4.70;1.10;;;14.30;99.90;;;;;;4995514;28;20046;-80
2022/07/27 01:41:12;;;;;;;7.50;1.60;;;14.30;99.90;;;;;;4995641;28;20069;-80
2022/07/27 01:43:38;;;;;;;6.47;1.38;;;14.40;99.90;;;;;;5012079;28;20030;-80
2022/07/27 01:46:04;;;;;;;4.25;1.20;;;14.40;99.90;;;;;;5011954;28;20417;-80
2022/07/27 01:48:30;;;;;;;4.03;1.25;;;14.30;99.90;;;;;;5011373;28;20387;-79
2022/07/27 01:50:56;;;;;;;5.68;1.60;;;14.30;99.90;;;;;;4995348;28;20124;-79
2022/07/27 01:53:22;;;;;;;4.28;1.40;;;14.30;99.90;;;;;;5012288;28;20129;-79
2022/07/27 01:55:49;;;;;;;4.25;1.40;;;14.30;99.90;;;;;;5011575;28;20061;-80
2022/07/27 01:58:15;;;;;;;4.07;1.13;;;14.20;99.90;;;;;;5011602;28;20045;-80
2022/07/27 02:00:41;;;;;;;4.88;1.45;;;14.20;99.90;;;;;;5009237;28;20040;-80
2022/07/27 02:03:09;;;;;;;5.57;1.58;;;14.10;99.90;;;;;;4979333;28;20026;-79
2022/07/27 02:05:36;;;;;;;3.85;1.20;;;14.10;99.90;;;;;;5011312;28;20115;-79
2022/07/27 02:08:02;;;;;;;6.70;1.60;;;14.00;99.90;;;;;;5011297;28;20042;-79
2022/07/27 02:10:28;;;;;;;9.63;1.67;;;14.00;99.90;;;;;;5011554;28;20045;-79
2022/07/27 02:12:53;;;;;;;6.65;1.45;;;13.90;99.90;;;;;;5011442;28;20038;-80
2022/07/27 02:15:21;;;;;;;5.28;1.63;;;13.90;99.90;;;;;;4995091;28;20129;-80
2022/07/27 02:17:48;;;;;;;4.10;1.42;;;13.80;99.90;;;;;;4995247;28;20398;-79
2022/07/27 02:20:16;;;;;;;4.55;1.50;;;13.80;99.90;;;;;;5010899;28;20125;-79
2022/07/27 02:22:43;;;;;;;3.35;1.48;;;13.80;99.90;;;;;;5011153;28;20070;-80
2022/07/27 02:25:11;;;;;;;6.15;1.40;;;13.80;99.90;;;;;;5011492;28;20398;-79
2022/07/27 02:27:37;;;;;;;4.28;1.27;;;13.70;99.90;;;;;;5011857;28;20544;-79
2022/07/27 02:30:07;;;;;;;7.78;1.50;;;13.70;99.90;;;;;;4994953;28;20035;-79
2022/07/27 02:32:33;;;;;;;5.72;1.67;;;13.70;99.90;;;;;;5011354;28;20117;-79
2022/07/27 02:34:59;;;;;;;5.57;1.40;;;13.60;99.90;;;;;;5009063;28;20494;-79
2022/07/27 02:37:25;;;;;;;4.40;1.48;;;13.60;99.90;;;;;;4994916;28;20125;-80
2022/07/27 02:39:51;;;;;;;5.45;1.35;;;13.60;99.90;;;;;;4995439;28;20068;-79
2022/07/27 02:42:18;;;;;;;3.58;1.40;;;13.60;99.90;;;;;;5011136;28;20046;-79
2022/07/27 02:44:43;;;;;;;5.00;1.60;;;13.60;99.90;;;;;;5011255;28;20041;-79
2022/07/27 02:47:09;;;;;;;6.00;1.43;;;13.60;99.90;;;;;;4994983;28;20439;-78
2022/07/27 02:49:36;;;;;;;4.32;1.58;;;13.60;99.90;;;;;;4995187;28;20360;-80
2022/07/27 02:52:03;;;;;;;5.25;1.30;;;13.60;99.90;;;;;;5011081;28;20038;-80
2022/07/27 02:54:31;;;;;;;7.78;1.88;;;13.60;99.90;;;;;;4995044;28;20092;-79
2022/07/27 02:56:58;;;;;;;7.32;1.92;;;13.60;99.90;;;;;;5011043;28;20092;-79
2022/07/27 02:59:26;;;;;;;4.32;1.60;;;13.60;99.90;;;;;;5013444;28;20096;-79
2022/07/27 03:01:52;;;;;;;5.82;1.40;;;13.60;99.90;;;;;;5014695;28;20052;-79
2022/07/27 03:04:18;;;;;;;6.23;1.87;;;13.70;99.90;;;;;;4982365;28;20413;-79
2022/07/27 03:06:43;;;;;;;5.80;1.60;;;13.70;99.90;;;;;;4982122;28;20280;-79
2022/07/27 03:09:10;;;;;;;3.80;1.35;;;13.70;99.90;;;;;;4998459;28;20033;-79
2022/07/27 03:11:36;;;;;;;3.67;1.40;;;13.70;99.90;;;;;;4998364;28;20042;-80
2022/07/27 03:14:02;;;;;;;;;;;13.70;99.90;;;;;;5014700;28;20038;-80
2022/07/27 03:16:27;;;;;;;6.15;1.63;;;13.70;99.90;;;;;;5014844;28;19924;-80
2022/07/27 03:18:53;;;;;;;3.72;1.52;;;13.70;99.90;;;;;;5014719;28;20046;-80
2022/07/27 03:21:19;;;;;;;6.13;1.70;;;13.70;99.90;;;;;;5014253;28;20111;-80
2022/07/27 03:23:44;;;;;;;4.47;1.50;;;13.70;99.90;;;;;;4998115;28;20304;-80
2022/07/27 03:26:10;;;;;;;5.10;1.50;;;13.70;99.90;;;;;;5014421;28;20394;-80
2022/07/27 03:28:36;;;;;;;4.43;1.70;;;13.70;99.90;;;;;;5014387;28;20061;-80
2022/07/27 03:31:02;;;;;;;3.63;1.70;;;13.80;99.90;;;;;;5014109;28;20291;-79
2022/07/27 03:33:28;;;;;;;;;;;13.70;99.90;;;;;;4998384;28;20038;-80
2022/07/27 03:35:54;;;;;;;8.20;1.60;;;13.80;99.90;;;;;;4997093;28;19921;-80
2022/07/27 03:38:21;;;;;;;5.85;1.63;;;13.70;99.90;;;;;;4997328;28;20038;-80
2022/07/27 03:40:47;;;;;;;4.55;1.67;;;13.70;99.90;;;;;;4997828;28;20045;-80
2022/07/27 03:43:13;;;;;;;5.47;1.52;;;13.70;99.90;;;;;;5014357;28;20048;-80
2022/07/27 03:45:39;;;;;;;3.55;1.50;;;13.70;99.90;;;;;;5014197;28;20096;-80
2022/07/27 03:48:05;;;;;;;5.82;1.75;;;13.70;99.90;;;;;;4997735;28;20042;-80
2022/07/27 03:50:30;;;;;;;4.60;1.52;;;13.70;99.90;;;;;;4997860;28;20033;-80
2022/07/27 03:52:56;;;;;;;3.90;1.73;;;13.70;99.90;;;;;;4997580;28;20041;-80
2022/07/27 03:55:22;;;;;;;5.85;1.58;;;13.70;99.90;;;;;;5014236;28;20037;-80
2022/07/27 03:57:49;;;;;;;5.35;1.60;;;13.80;99.90;;;;;;5013835;28;20034;-79
2022/07/27 04:00:15;;;;;;;7.07;2.00;;;13.70;99.90;;;;;;5013374;28;20069;-80
2022/07/27 04:02:41;;;;;;;5.63;1.70;;;13.70;99.90;;;;;;5013965;28;20084;-80
2022/07/27 04:05:08;;;;;;;5.93;1.50;;;13.80;99.90;;;;;;5013259;28;20049;-80
2022/07/27 04:07:34;;;;;;;7.15;1.73;;;13.80;99.90;;;;;;5013806;28;20403;-80
2022/07/27 04:10:01;;;;;;;5.47;1.50;;;13.80;99.90;;;;;;4996108;28;20034;-80
2022/07/27 04:12:26;;;;;;;5.30;1.67;;;13.80;99.90;;;;;;5013532;28;20041;-80
2022/07/27 04:14:52;;;;;;;4.50;1.77;;;13.80;99.90;;;;;;5013524;28;20069;-81
2022/07/27 04:17:18;;;;;;;6.00;1.80;;;13.70;99.90;;;;;;5013323;28;20300;-80
2022/07/27 04:19:43;;;;;;;6.40;1.52;;;13.80;99.90;;;;;;5014067;28;20117;-80
2022/07/27 04:22:09;;;;;;;6.00;1.57;;;13.80;99.90;;;;;;4981198;28;20409;-80
2022/07/27 04:24:35;;;;;;;4.53;1.50;;;13.80;99.90;;;;;;4997355;28;20293;-80
2022/07/27 04:27:00;;;;;;;7.13;1.93;;;13.80;99.90;;;;;;5013413;28;20284;-81
2022/07/27 04:29:26;;;;;;;6.45;1.60;;;13.90;99.90;;;;;;4998008;28;20269;-80
2022/07/27 04:31:52;;;;;;;7.68;1.90;;;13.80;99.90;;;;;;5013046;28;20099;-80
2022/07/27 04:34:18;;;;;;;6.35;2.05;;;13.90;99.90;;;;;;4996679;28;20077;-79
2022/07/27 04:36:44;;;;;;;5.68;1.77;;;13.80;99.90;;;;;;4997027;28;20045;-79
2022/07/27 04:39:10;;;;;;;4.35;1.67;;;13.90;99.90;;;;;;5012798;28;20048;-80
2022/07/27 04:41:36;;;;;;;7.03;1.65;;;13.80;99.90;;;;;;4980264;28;20054;-80
2022/07/27 04:44:02;;;;;;;6.05;1.80;;;13.80;99.90;;;;;;5012629;28;20061;-79
2022/07/27 04:46:30;;;;;;;4.28;1.50;;;13.90;99.90;;;;;;4996146;28;20040;-80
2022/07/27 04:48:56;;;;;;;8.68;2.40;;;13.90;99.90;;;;;;4996843;28;20037;-80
2022/07/27 04:51:22;;;;;;;5.85;1.63;;;13.90;99.90;;;;;;5013419;28;20434;-81
2022/07/27 04:53:48;;;;;;;6.80;1.88;;;13.90;99.90;;;;;;4996880;28;20042;-81
2022/07/27 04:56:14;;;;;;;8.88;1.65;;;14.00;99.90;;;;;;5012513;28;20049;-82
2022/07/27 04:58:39;;;;;;;5.65;2.17;;;14.00;99.90;;;;;;4996062;28;20552;-80
2022/07/27 05:01:05;;;;;;;7.55;2.47;;;14.00;99.90;;;;;;4996016;28;20033;-81
2022/07/27 05:03:31;;;;;;;4.85;2.00;;;14.10;99.90;;;;;;4995911;28;20038;-81
2022/07/27 05:05:56;;;;;;;4.07;1.75;;;14.10;99.90;;;;;;5011716;28;20096;-81
2022/07/27 05:08:22;;;;;;;5.63;2.08;;;14.00;99.90;;;;;;4979508;28;20058;-80
2022/07/27 05:10:48;;;;;;;8.02;2.30;;;14.00;99.90;;;;;;4995676;28;20038;-80
2022/07/27 05:13:13;;;;;;;7.18;2.00;;;14.10;99.90;;;;;;5011647;28;20417;-80
2022/07/27 05:15:39;;;;;;;3.57;1.67;;;14.10;99.90;;;;;;5011713;28;20037;-80
2022/07/27 05:18:05;;;;;;;4.90;1.52;;;14.20;99.90;;;;;;4995154;28;20364;-80
2022/07/27 05:20:31;;;;;;;5.28;1.65;;;14.20;99.90;;;;;;4995260;28;20048;-80
2022/07/27 05:22:57;;;;;;;5.68;1.60;;;14.20;99.90;;;;;;4993544;28;20091;-81
2022/07/27 05:25:26;;;;;;;4.53;1.30;;;14.20;99.90;;;;;;5012382;28;20124;-80
2022/07/27 05:27:52;;;;;;;5.10;1.45;;;14.30;99.90;;;;;;4979783;28;20281;-80
2022/07/27 05:30:19;;;;;;;5.45;1.70;;;14.30;99.90;;;;;;4995602;28;20120;-80
2022/07/27 05:32:45;;;;;;;;;;;14.40;99.90;;;;;;5012482;28;20367;-81
2022/07/27 05:35:10;;;;;;;5.35;1.58;;;14.40;99.90;;;;;;5011651;28;19918;-81
2022/07/27 05:37:36;;;;;;;4.13;1.70;;;14.40;99.90;;;;;;5011928;28;20038;-81
2022/07/27 05:40:06;;;;;;;6.30;1.60;;;14.40;99.90;;;;;;5011198;28;20288;-81
2022/07/27 05:42:32;;;;;;;7.55;1.63;;;14.40;99.90;;;;;;4995163;28;20088;-81
2022/07/27 05:44:58;;;;;;;4.07;1.55;;;14.40;99.90;;;;;;4999965;28;20058;-81
2022/07/27 05:47:24;;;;;;;4.72;1.50;;;14.40;99.90;;;;;;5011936;28;20042;-81
2022/07/27 05:49:49;;;;;;;7.75;1.73;;;14.40;99.90;;;;;;4995261;28;20068;-80
2022/07/27 05:52:15;;;;;;;6.18;1.48;;;14.40;99.90;;;;;;5011452;28;20042;-81
2022/07/27 05:54:42;;;;;;;7.50;1.35;;;14.50;99.90;;;;;;5011779;28;20498;-80
2022/07/27 05:57:08;;;;;;;4.00;1.20;;;14.60;99.90;;;;;;4995202;28;20042;-81
2022/07/27 05:59:35;;;;;;;5.95;1.35;;;14.60;99.90;;;;;;5011487;28;20107;-82
2022/07/27 06:02:02;;;;;;;6.95;1.35;;;14.70;99.90;;;;;;5011119;28;20133;-80
2022/07/27 06:04:28;;;;;;;6.40;1.38;;;14.80;99.90;;;;;;5011120;28;20081;-81
2022/07/27 06:09:37;;;;;;;5.13;1.30;;;14.90;99.90;;;;;;4997697;28;20402;-81
2022/07/27 06:12:03;;;;;;;3.67;1.13;;;15.00;99.90;;;;;;4995194;28;20042;-81
2022/07/27 06:14:29;;;;;;;3.13;1.23;;;15.00;99.90;;;;;;5008739;28;20360;-80
2022/07/27 06:16:54;;;;;;;4.32;1.33;;;15.10;99.90;;;;;;5011302;28;20038;-80
2022/07/27 06:19:20;;;;;;;5.13;1.33;;;15.20;99.90;;;;;;4994955;28;20494;-80
2022/07/27 06:21:46;;;;;;;4.65;1.33;;;15.30;99.90;;;;;;5011087;28;20511;-80
2022/07/27 06:24:11;;;;;;;4.75;1.17;;;15.40;99.90;;;;;;5010279;28;20576;-80
2022/07/27 06:26:37;;;;;;;4.07;0.98;;;15.60;99.90;;;;;;5010934;28;20041;-80
2022/07/27 06:29:03;;;;;;;8.35;1.48;;;15.70;99.90;;;;;;4994205;28;20084;-80
2022/07/27 06:31:29;;;;;;;6.07;1.50;;;15.90;99.90;;;;;;4994109;28;20038;-80
2022/07/27 06:33:56;;;;;;;6.10;1.20;;;16.40;99.90;;;;;;5012283;28;20052;-79
2022/07/27 06:36:21;;;;;;;4.57;1.40;;;17.20;99.90;;;;;;4998223;28;20087;-80
2022/07/27 06:38:48;;;;;;;5.40;1.23;;;17.90;99.90;;;;;;4998448;28;20129;-80
2022/07/27 06:41:14;;;;;;;;;;;18.50;99.90;;;;;;5014607;28;20054;-80
2022/07/27 06:43:42;;;;;;;5.80;1.20;;;19.00;99.90;;;;;;5000127;28;19917;-80
2022/07/27 06:46:11;;;;;;;4.65;0.95;;;19.50;99.90;;;;;;5013942;28;20041;-80
2022/07/27 06:48:40;;;;;;;4.95;0.88;;;19.40;99.90;;;;;;4997814;28;20038;-80
2022/07/27 06:51:06;;;;;;;8.95;1.00;;;19.30;99.90;;;;;;5013921;28;20042;-79
2022/07/27 06:53:33;;;;;;;4.60;1.00;;;19.30;99.90;;;;;;5014225;28;20053;-80
2022/07/27 06:56:02;;;;;;;3.03;0.93;;;19.70;99.90;;;;;;5013138;28;20557;-80
2022/07/27 06:58:30;;;;;;;6.47;0.77;;;20.10;99.90;;;;;;5010431;28;20080;-79
2022/07/27 07:00:58;;;;;;;5.28;0.93;;;20.50;99.90;;;;;;5014095;28;20042;-79
2022/07/27 07:03:24;;;;;;;6.22;1.25;;;20.90;99.90;;;;;;5014173;28;20472;-79
2022/07/27 07:05:50;;;;;;;4.63;0.90;;;21.00;99.90;;;;;;5013979;28;20042;-79
2022/07/27 07:08:15;;;;;;;3.45;0.55;;;21.10;99.90;;;;;;4997202;28;20116;-80
2022/07/27 07:10:43;;;;;;;4.28;0.90;;;21.30;99.90;;;;;;4981584;28;20478;-80
2022/07/27 07:13:10;;;;;;;4.78;0.80;;;21.40;99.90;;;;;;5027786;28;20045;-80
2022/07/27 07:15:38;;;;;;;3.55;0.70;;;21.50;99.90;;;;;;4997769;28;20513;-79
2022/07/27 07:18:05;;;;;;;5.72;1.10;;;21.80;99.90;;;;;;5013704;28;20045;-79
2022/07/27 07:20:31;;;;;;;6.88;0.70;;;21.80;99.90;;;;;;5011115;28;20046;-79
2022/07/27 07:22:57;;;;;;;;;;;21.70;99.90;;;;;;4997617;28;20041;-81
2022/07/27 07:25:23;;;;;;;3.25;0.80;;;21.80;99.90;;;;;;5013954;28;20269;-80
2022/07/27 07:27:49;;;;;;;4.90;0.73;;;21.60;99.90;;;;;;5013427;28;20038;-80
2022/07/27 07:30:15;;;;;;;;;;;21.30;99.90;;;;;;5013666;28;20037;-80
2022/07/27 07:32:41;;;;;;;5.20;0.80;;;20.70;99.90;;;;;;5013476;28;19925;-80
2022/07/27 07:35:07;;;;;;;2.80;0.60;;;20.20;99.90;;;;;;5013355;28;20372;-80
2022/07/27 07:37:33;;;;;;;5.78;0.93;;;20.00;99.90;;;;;;5013278;28;20096;-81
2022/07/27 07:39:59;;;;;;;4.63;1.17;;;19.60;99.90;;;;;;4981291;28;20030;-81
2022/07/27 07:42:25;;;;;;;3.58;0.70;;;19.40;99.90;;;;;;5013349;28;20042;-81
2022/07/27 07:44:51;;;;;;;3.83;0.73;;;19.00;99.90;;;;;;5012409;28;20038;-81
2022/07/27 07:47:16;;;;;;;8.77;2.20;;;18.70;99.90;;;;;;5013302;28;20048;-80
2022/07/27 07:49:42;;;;;;;7.97;1.38;;;18.10;99.90;;;;;;4997541;28;20049;-79
2022/07/27 07:52:08;;;;;;;5.40;1.20;;;17.80;99.90;;;;;;4981060;28;20398;-79
2022/07/27 07:54:33;;;;;;;6.15;1.75;;;17.70;99.90;;;;;;5012841;28;20045;-79
2022/07/27 07:56:59;;;;;;;4.32;1.20;;;17.20;99.90;;;;;;5013500;28;20152;-80
2022/07/27 07:59:25;;;;;;;7.05;1.42;;;17.00;99.90;;;;;;5013420;28;20041;-79
2022/07/27 08:01:51;;;;;;;4.88;1.17;;;16.70;99.90;;;;;;4999189;28;20121;-79
2022/07/27 08:04:16;;;;;;;4.63;1.20;;;16.50;99.90;;;;;;5014867;28;20088;-79
2022/07/27 08:06:42;;;;;;;4.35;1.20;;;16.30;99.90;;;;;;4984286;28;20571;-80
2022/07/27 08:09:08;;;;;;;5.35;1.52;;;16.40;99.90;;;;;;5013226;28;20397;-80
2022/07/27 08:11:36;;;;;;;7.38;1.60;;;16.30;99.90;;;;;;5013100;28;20502;-80
2022/07/27 08:14:02;;;;;;;6.95;1.52;;;16.40;99.90;;;;;;4996976;28;20030;-80
2022/07/27 08:16:28;;;;;;;4.80;1.40;;;16.40;99.90;;;;;;4996545;28;20049;-80
2022/07/27 08:18:54;;;;;;;4.03;1.70;;;16.50;99.90;;;;;;4996821;28;20060;-81
2022/07/27 08:21:20;;;;;;;7.75;1.60;;;16.40;99.90;;;;;;5012726;28;20046;-80
2022/07/27 08:23:45;;;;;;;6.93;1.52;;;16.50;99.90;;;;;;4994261;28;20371;-80
2022/07/27 08:26:11;;;;;;;7.10;1.38;;;16.50;99.90;;;;;;5013075;28;20033;-80
2022/07/27 08:28:37;;;;;;;5.75;1.20;;;16.60;99.90;;;;;;5013049;28;20038;-80
2022/07/27 08:31:03;;;;;;;5.53;1.30;;;16.70;99.90;;;;;;5014696;28;20038;-78
2022/07/27 08:33:28;;;;;;;3.63;1.05;;;16.70;99.90;;;;;;5017505;28;20054;-78
2022/07/27 08:35:56;;;;;;;5.43;1.02;;;16.80;99.90;;;;;;4999854;28;20042;-78
2022/07/27 08:38:22;;;;;;;6.88;1.35;;;16.90;99.90;;;;;;4998894;28;20048;-79
2022/07/27 08:40:49;;;;;;;4.38;0.80;;;17.00;99.90;;;;;;4998606;28;20033;-78
2022/07/27 08:43:16;;;;;;;6.32;0.95;;;17.10;99.90;;;;;;5013395;28;20489;-81
2022/07/27 08:45:44;;;;;;;5.85;1.05;;;17.20;99.90;;;;;;5012220;28;20120;-80
2022/07/27 08:48:13;;;;;;;3.67;1.00;;;17.30;99.90;;;;;;4996337;28;20383;-80
2022/07/27 08:50:40;;;;;;;3.40;0.80;;;17.40;99.90;;;;;;5012160;28;20034;-80
2022/07/27 08:53:12;;;;;;;3.83;0.80;;;17.40;99.90;;;;;;4996138;28;20033;-80
2022/07/27 08:55:41;;;;;;;5.35;0.80;;;17.50;99.90;;;;;;5011942;28;20038;-80
2022/07/27 08:58:09;;;;;;;5.53;0.88;;;17.50;99.90;;;;;;5012712;28;20512;-80
2022/07/27 09:00:38;;;;;;;3.58;0.80;;;17.60;99.90;;;;;;5012922;28;20378;-79
2022/07/27 09:03:04;;;;;;;6.53;1.10;;;17.80;99.90;;;;;;5015666;28;20052;-79
2022/07/27 09:05:30;;;;;;;5.13;0.80;;;18.10;99.90;;;;;;5012022;28;20498;-80
2022/07/27 09:08:23;;;;;;;3.40;0.60;;;18.40;99.90;;;;;;5012404;28;20069;-79
2022/07/27 09:10:49;;;;;;;5.60;0.70;;;18.70;99.90;;;;;;5010447;28;20109;-80
2022/07/27 09:13:19;;;;;;;4.70;0.85;;;19.00;99.90;;;;;;5011710;28;20043;-79
2022/07/27 09:15:47;;;;;;;3.40;0.68;;;19.30;99.90;;;;;;5009404;28;20038;-79
2022/07/27 09:18:21;;;;;;;4.18;1.10;;;19.70;99.90;;;;;;5012153;28;20394;-80
2022/07/27 09:21:09;;;;;;;2.83;0.80;;;20.10;99.90;;;;;;5010081;28;20042;-79
2022/07/27 09:23:35;;;;;;;5.18;0.80;;;20.30;99.90;;;;;;4979658;28;20046;-79
2022/07/27 09:26:10;;;;;;;;;;;20.50;99.90;;;;;;4995738;28;20030;-80
2022/07/27 09:28:35;;;;;;;4.95;0.80;;;20.90;99.90;;;;;;5011596;28;19925;-80
2022/07/27 09:31:10;;;;;;;2.65;0.52;;;21.10;99.90;;;;;;5015912;28;20057;-80
2022/07/27 09:33:50;;;;;;;4.88;0.55;;;21.10;99.90;;;;;;5010961;28;20554;-80
2022/07/27 09:36:17;;;;;;;3.40;0.73;;;21.20;99.90;;;;;;5008556;28;20104;-80
2022/07/27 09:38:54;;;;;;;2.30;0.50;;;21.20;99.90;;;;;;5011068;28;20042;-81
2022/07/27 09:41:21;;;;;;;4.57;0.70;;;21.20;99.90;;;;;;4991898;28;20081;-80
2022/07/27 09:43:52;;;;;;;2.80;0.65;;;20.90;99.30;;;;;;4994757;28;20034;-80
2022/07/27 09:46:33;;;;;;;2.90;0.40;;;20.80;99.10;;;;;;4995175;28;20037;-80
2022/07/27 09:48:59;;;;;;;3.15;0.57;;;20.70;98.90;;;;;;4994909;28;20037;-80
2022/07/27 09:51:25;;;;;;;;;;;20.90;99.40;;;;;;4995122;28;20454;-79
2022/07/27 09:53:52;;;;;;;2.85;0.40;;;21.00;98.90;;;;;;5011439;28;20000;-80
2022/07/27 09:56:28;;;;;;;2.20;0.50;;;21.20;98.30;;;;;;4994766;28;20046;-80
2022/07/27 09:59:03;;;;;;;3.05;0.57;;;21.30;98.00;;;;;;5031352;28;20089;-79
2022/07/27 10:01:33;;;;;;;2.55;0.40;;;21.50;97.70;;;;;;5006904;28;20117;-80
2022/07/27 10:04:08;;;;;;;2.63;0.80;;;21.50;97.40;;;;;;5011269;28;20037;-79
2022/07/27 10:06:35;;;;;;;1.65;0.50;;;21.50;97.20;;;;;;5013459;28;20060;-80
2022/07/27 10:09:01;;;;;;;2.25;0.40;;;21.30;96.80;;;;;;4995425;28;20073;-80
2022/07/27 10:11:28;;;;;;;2.10;0.40;;;21.20;97.40;;;;;;5011095;28;20505;-80
2022/07/27 10:13:55;;;;;;;2.17;0.40;;;21.30;97.80;;;;;;4997412;28;20117;-80
2022/07/27 10:16:22;;;;;;;3.05;0.47;;;21.40;97.30;;;;;;5010593;28;20131;-80
2022/07/27 10:19:25;;;;;;;3.50;0.47;;;21.40;97.50;;;;;;5009883;28;20034;-79
2022/07/27 10:21:53;;;;;;;3.58;0.50;;;21.90;97.20;;;;;;5009840;28;20042;-78
2022/07/27 10:24:27;;;;;;;4.70;0.60;;;22.30;98.20;;;;;;4993920;28;20038;-79
2022/07/27 10:26:54;;;;;;;4.63;0.50;;;22.70;97.00;;;;;;5010442;28;20048;-80
2022/07/27 10:29:21;;;;;;;3.97;0.65;;;22.80;96.10;;;;;;5007667;28;20050;-79
2022/07/27 10:31:53;;;;;;;4.30;0.95;;;22.40;95.60;;;;;;4993449;28;20038;-80
2022/07/27 10:34:36;;;;;;;6.07;0.57;;;22.40;96.10;;;;;;4993883;28;20137;-77
2022/07/27 10:37:15;;;;;;;3.60;0.50;;;22.10;95.80;;;;;;4989868;28;20033;-78
2022/07/27 10:39:49;;;;;;;1.80;0.45;;;21.60;95.60;;;;;;5004732;28;20868;-78
2022/07/27 10:42:29;;;;;;;1.92;0.32;;;21.40;96.70;;;;;;5008155;28;20034;-79
2022/07/27 10:45:03;;;;;;;2.08;0.40;;;21.10;96.60;;;;;;4993053;28;20053;-79
2022/07/27 10:47:51;;;;;;;2.08;0.40;;;21.10;96.60;;;;;;5010079;28;20446;-79
2022/07/27 10:50:16;;;;;;;2.90;0.40;;;20.90;95.80;;;;;;5010090;28;20548;-78
2022/07/27 10:53:02;;;;;;;2.70;0.60;;;20.80;96.30;;;;;;5009607;28;20073;-78
2022/07/27 10:55:31;;;;;;;3.40;0.70;;;20.90;96.50;;;;;;5008729;28;20041;-78
2022/07/27 10:58:01;;;;;;;2.15;0.55;;;21.00;96.60;;;;;;4989717;28;20050;-78
2022/07/27 11:00:49;;;;;;;1.77;0.30;;;20.90;96.10;;;;;;4993354;28;20045;-79
2022/07/27 11:03:38;;;;;;;4.15;0.50;;;21.20;95.80;;;;;;5009496;28;20108;-78
2022/07/27 11:06:22;;;;;;;1.13;0.30;;;22.00;95.00;;;;;;5000829;28;20061;-78
2022/07/27 11:08:50;;;;;;;3.55;0.30;;;22.50;95.30;;;;;;5008910;28;20118;-79
2022/07/27 11:11:21;;;;;;;1.30;0.30;;;23.20;95.20;;;;;;5013283;28;20069;-79
2022/07/27 11:13:56;;;;;;;3.80;0.28;;;23.30;94.50;;;;;;5009536;28;20379;-78
2022/07/27 11:16:22;;;;;;;2.88;0.30;;;23.20;94.60;;;;;;5005212;28;20041;-79
2022/07/27 11:19:00;;;;;;;;;;;23.30;94.80;;;;;;4975974;28;20035;-78
2022/07/27 11:21:28;;;;;;;1.13;0.30;;;23.50;94.30;;;;;;5009782;28;19921;-79
2022/07/27 11:24:16;;;;;;;1.00;0.20;;;23.40;94.40;;;;;;4996255;28;20075;-78
2022/07/27 11:26:44;;;;;;;2.33;0.30;;;23.20;93.10;;;;;;5007988;28;20073;-79
2022/07/27 11:29:12;;;;;;;1.67;0.30;;;22.90;93.90;;;;;;5007370;28;20079;-78
2022/07/27 11:31:40;;;;;;;2.65;0.40;;;22.90;94.50;;;;;;4996110;28;20077;-79
2022/07/27 11:34:06;;;;;;;2.55;0.30;;;22.50;94.50;;;;;;5010946;28;20042;-78
2022/07/27 11:36:44;;;;;;;2.63;0.40;;;22.20;95.20;;;;;;5007757;28;20033;-78
2022/07/27 11:39:12;;;;;;;2.78;0.30;;;22.10;95.60;;;;;;5008076;28;20567;-78
2022/07/27 11:41:39;;;;;;;3.63;0.50;;;21.80;95.60;;;;;;4990884;28;20042;-78
2022/07/27 11:44:13;;;;;;;2.15;0.30;;;21.70;96.10;;;;;;4990193;28;20501;-78
2022/07/27 11:46:41;;;;;;;1.63;0.40;;;21.70;96.20;;;;;;5010702;28;20066;-80
2022/07/27 11:49:28;;;;;;;1.58;0.30;;;21.50;96.30;;;;;;4996967;28;20042;-79
2022/07/27 11:51:57;;;;;;;3.17;0.52;;;21.60;96.70;;;;;;5012720;28;20042;-78
2022/07/27 11:54:40;;;;;;;3.45;0.50;;;21.70;96.40;;;;;;5013525;28;20519;-79
2022/07/27 11:57:14;;;;;;;1.70;0.30;;;21.60;96.40;;;;;;4997000;28;20040;-79
2022/07/27 11:59:42;;;;;;;3.15;0.30;;;22.00;95.90;;;;;;4996465;28;20499;-80
2022/07/27 12:02:14;;;;;;;2.70;0.40;;;22.60;95.30;;;;;;5013072;28;20033;-81
2022/07/27 12:04:42;;;;;;;2.25;0.32;;;22.70;94.40;;;;;;5010790;28;20050;-81
2022/07/27 12:07:11;;;;;;;2.55;0.50;;;22.80;94.40;;;;;;5013059;28;20057;-81
2022/07/27 12:09:49;;;;;;;2.22;0.43;;;23.00;94.80;;;;;;5015421;28;20042;-81
2022/07/27 12:12:16;;;;;;;2.40;0.20;;;23.60;94.30;;;;;;5013000;28;20041;-81
2022/07/27 12:14:49;;;;;;;3.33;0.47;;;23.90;94.40;;;;;;5011310;28;20041;-81
2022/07/27 12:17:32;;;;;;;3.45;0.40;;;23.40;95.00;;;;;;5011675;28;20050;-81
2022/07/27 12:20:04;;;;;;;2.83;0.30;;;23.10;95.50;;;;;;4979077;28;20044;-81
2022/07/27 12:22:35;;;;;;;4.25;0.50;;;23.50;95.00;;;;;;4995049;28;20037;-81
2022/07/27 12:25:28;;;;;;;5.05;0.70;;;23.50;94.30;;;;;;5009818;28;20410;-80
2022/07/27 12:28:04;;;;;;;1.33;0.40;;;23.20;94.30;;;;;;5012278;28;20417;-80
2022/07/27 12:30:41;;;;;;;3.95;0.60;;;23.10;94.40;;;;;;4996291;28;20404;-80
2022/07/27 12:33:28;;;;;;;3.42;0.50;;;22.90;94.50;;;;;;5011715;28;20099;-80
2022/07/27 12:35:55;;;;;;;2.92;0.47;;;23.00;94.40;;;;;;5010138;28;20107;-80
2022/07/27 12:38:20;;;;;;;3.42;0.40;;;22.90;94.70;;;;;;4996075;28;20038;-80
2022/07/27 12:40:54;;;;;;;;;;;22.80;94.40;;;;;;5010936;28;20026;-80
2022/07/27 12:43:22;;;;;;;3.13;0.73;;;22.50;95.30;;;;;;5012069;28;19918;-80
2022/07/27 12:45:50;;;;;;;1.05;0.30;;;22.50;94.70;;;;;;5011999;28;20101;-80
2022/07/27 12:48:19;;;;;;;3.47;0.50;;;22.50;95.10;;;;;;4995737;28;20044;-79
2022/07/27 12:50:47;;;;;;;4.50;0.50;;;22.40;95.30;;;;;;5011548;28;20039;-80
2022/07/27 12:53:15;;;;;;;3.42;0.43;;;22.40;95.40;;;;;;4995030;28;20096;-80
2022/07/27 12:55:42;;;;;;;1.67;0.40;;;22.30;95.20;;;;;;5011778;28;20127;-80
2022/07/27 12:58:10;;;;;;;3.83;0.70;;;22.30;95.20;;;;;;4999284;28;20041;-79
2022/07/27 13:00:36;;;;;;;3.22;0.60;;;22.00;95.20;;;;;;5011308;28;20050;-78